Flight Track Log - Related Links

Times and Time Zones

All times are in EDT time to prevent confusion due to time zone crossing. See the SWA1798 flight status page for this flight to view local times or setup timezone preferences in your user account.

Time Position Orientation Groundspeed Altitude Reporting Facility
EDT Latitude Longitude Course Direction KTS MPH feet Rate Location/Type
Sat 04:43:08 PM 42.9667 -87.8833 324° Northwest 174 200 1,500  Level KMKE
Sat 04:44:08 PM 43.0000 -87.9167 345° North 219 252 3,400 2,392 Climbing KMKE
Sat 04:45:36 PM 42.9911 -88.0617 265° West 260 299 7,400 2,880 Climbing Chicago Center
Sat 04:46:38 PM 42.9794 -88.1686 262° West 276 318 10,600 2,683 Climbing Chicago Center
Sat 04:47:39 PM 42.9672 -88.2808 262° West 293 337 12,900 1,951 Climbing Chicago Center
Sat 04:48:41 PM 42.9553 -88.4097 263° West 334 384 14,600 2,032 Climbing Chicago Center
Sat 04:49:43 PM 42.9414 -88.5483 262° West 359 413 17,100 2,371 Climbing Chicago Center
Sat 04:50:45 PM 42.9442 -88.6908 272° West 372 428 19,500 2,000 Climbing Chicago Center
Sat 04:51:46 PM 42.9494 -88.8333 273° West 372 428 21,200 1,512 Climbing Chicago Center
Sat 04:52:48 PM 42.9542 -88.9897 272° West 402 463 22,600 1,742 Climbing Chicago Center
Sat 04:53:50 PM 42.9592 -89.1814 272° West 415 478 24,800 1,694 Climbing Chicago Center
Sat 04:54:52 PM 42.9636 -89.3425 272° West 422 486 26,100 1,512 Climbing Chicago Center
Sat 04:55:53 PM 42.9678 -89.5086 272° West 430 495 27,900 1,463 Climbing Chicago Center
Sat 04:56:55 PM 42.9589 -89.6714 266° West 437 503 29,100 1,065 Climbing Chicago Center
Sat 04:57:57 PM 42.9136 -89.8319 249° West 448 516 30,100 1,355 Climbing Chicago Center
Sat 04:58:59 PM 42.8700 -89.9964 250° West 450 518 31,900 1,854 Climbing Chicago Center
Sat 05:00:00 PM 42.8239 -90.1472 247° West 435 501 33,900 1,024 Climbing Chicago Center
Sat 05:01:02 PM 42.7514 -90.2689 231° Southwest 413 475 34,000 48 Climbing Chicago Center
Sat 05:02:04 PM 42.6775 -90.3956 232° Southwest 421 484 34,000  Level Chicago Center
Sat 05:03:06 PM 42.5897 -90.5483 232° Southwest 423 487 34,000  Level Chicago Center
Sat 05:04:07 PM 42.5172 -90.6756 232° Southwest 424 488 34,000  Level Chicago Center
Sat 05:05:09 PM 42.4597 -90.8122 240° Southwest 419 482 34,000  Level Chicago Center
Sat 05:06:11 PM 42.4208 -90.9583 250° West 410 472 34,000  Level Chicago Center
Sat 05:07:13 PM 42.3808 -91.1014 249° West 409 471 34,000  Level Chicago Center
Sat 05:08:15 PM 42.3403 -91.2447 249° West 408 470 34,000  Level Chicago Center
Sat 05:09:16 PM 42.2994 -91.3892 249° West 408 470 34,000  Level Chicago Center
Sat 05:10:18 PM 42.2589 -91.5339 249° West 409 471 34,000  Level Chicago Center
Sat 05:11:20 PM 42.2097 -91.7056 249° West 409 471 34,000  Level Chicago Center
Sat 05:12:22 PM 42.1694 -91.8483 249° West 409 471 34,000  Level Chicago Center
Sat 05:13:24 PM 42.1281 -91.9900 249° West 409 471 34,000  Level Chicago Center
Sat 05:14:25 PM 42.0869 -92.1319 249° West 408 470 34,000  Level Chicago Center
Sat 05:15:27 PM 42.0458 -92.2739 249° West 408 470 34,000  Level Chicago Center
Sat 05:16:29 PM 42.0047 -92.4150 249° West 408 470 34,000  Level Chicago Center
Sat 05:17:31 PM 41.9622 -92.5542 248° West 407 468 34,000  Level Chicago Center
Sat 05:18:23 PM 41.9208 -92.6989 249° West 406 467 34,000  Level Minneapolis Center
Sat 05:19:25 PM 41.8811 -92.8319 248° West 406 467 34,000  Level Minneapolis Center
Sat 05:20:27 PM 41.8397 -92.9714 248° West 406 467 34,000  Level Minneapolis Center
Sat 05:21:28 PM 41.7967 -93.1106 248° West 407 468 34,000  Level Minneapolis Center
Sat 05:22:30 PM 41.7467 -93.2775 248° West 407 468 34,000  Level Minneapolis Center
Sat 05:23:32 PM 41.7044 -93.4156 248° West 406 467 34,000  Level Minneapolis Center
Sat 05:24:33 PM 41.6625 -93.5514 248° West 405 466 34,000  Level Minneapolis Center
Sat 05:25:35 PM 41.6206 -93.6861 247° West 401 461 34,000  Level Minneapolis Center
Sat 05:26:37 PM 41.5775 -93.8233 247° West 401 461 34,000  Level Minneapolis Center
Sat 05:27:38 PM 41.5283 -93.9828 248° West 398 458 34,000  Level Minneapolis Center
Sat 05:28:40 PM 41.4861 -94.1161 247° West 398 458 34,000  Level Minneapolis Center
Sat 05:29:42 PM 41.4431 -94.2528 247° West 396 456 34,000  Level Minneapolis Center
Sat 05:30:43 PM 41.4008 -94.3869 247° West 393 452 34,000  Level Minneapolis Center
Sat 05:31:45 PM 41.3586 -94.5217 247° West 393 452 34,000  Level Minneapolis Center
Sat 05:32:47 PM 41.3156 -94.6575 247° West 394 453 34,000  Level Minneapolis Center
Sat 05:33:48 PM 41.2714 -94.7933 247° West 395 455 34,000  Level Minneapolis Center
Sat 05:34:50 PM 41.2281 -94.9283 247° West 396 456 34,000  Level Minneapolis Center
Sat 05:35:51 PM 41.1844 -95.0653 247° West 397 457 34,000  Level Minneapolis Center
Sat 05:36:53 PM 41.1303 -95.2292 246° West 399 459 34,000  Level Minneapolis Center
Sat 05:37:55 PM 41.0847 -95.3650 246° West 400 460 34,000  Level Minneapolis Center
Sat 05:38:56 PM 41.0397 -95.5031 247° West 401 461 34,000  Level Minneapolis Center
Sat 05:39:58 PM 40.9942 -95.6392 246° West 402 463 34,000  Level Minneapolis Center
Sat 05:40:59 PM 40.9478 -95.7772 246° West 402 463 34,000  Level Minneapolis Center
Sat 05:42:01 PM 40.9017 -95.9144 246° West 403 464 34,000  Level Minneapolis Center
Sat 05:43:03 PM 40.8561 -96.0508 246° West 403 464 34,000  Level Minneapolis Center
Sat 05:44:04 PM 40.8103 -96.1875 246° West 403 464 34,000  Level Minneapolis Center
Sat 05:45:06 PM 40.7647 -96.3222 246° West 403 464 34,000  Level Minneapolis Center
Sat 05:46:07 PM 40.7183 -96.4569 246° West 403 464 34,000  Level Minneapolis Center
Sat 05:47:09 PM 40.6722 -96.5925 246° West 403 464 34,000  Level Minneapolis Center
Sat 05:48:11 PM 40.6167 -96.7539 246° West 403 464 34,000  Level Minneapolis Center
Sat 05:49:12 PM 40.5708 -96.8867 246° West 403 464 34,000  Level Minneapolis Center
Sat 05:50:14 PM 40.5244 -97.0206 246° West 403 464 34,000  Level Minneapolis Center
Sat 05:51:15 PM 40.4778 -97.1536 245° Southwest 402 463 34,000  Level Minneapolis Center
Sat 05:52:17 PM 40.4311 -97.2872 245° Southwest 402 463 34,000  Level Minneapolis Center
Sat 05:53:19 PM 40.3783 -97.4358 245° Southwest 402 463 34,000  Level Minneapolis Center
Sat 05:54:20 PM 40.3317 -97.5694 245° Southwest 402 463 34,000  Level Minneapolis Center
Sat 05:55:22 PM 40.2833 -97.7031 245° Southwest 402 463 34,000  Level Minneapolis Center
Sat 05:56:23 PM 40.2361 -97.8347 245° Southwest 402 463 34,000  Level Minneapolis Center
Sat 05:57:25 PM 40.1886 -97.9678 245° Southwest 402 463 34,000  Level Minneapolis Center
Sat 05:58:26 PM 40.1408 -98.1017 245° Southwest 402 463 34,000  Level Minneapolis Center
Sat 05:59:28 PM 40.0922 -98.2325 244° Southwest 402 463 34,000  Level Minneapolis Center
Sat 06:00:29 PM 40.0450 -98.3650 245° Southwest 402 463 34,000  Level Minneapolis Center
Sat 06:01:31 PM 39.9964 -98.4969 244° Southwest 402 463 34,000  Level Minneapolis Center
Sat 06:02:32 PM 39.9386 -98.6544 244° Southwest 402 463 34,000  Level Minneapolis Center
Sat 06:03:34 PM 39.8903 -98.7864 245° Southwest 402 463 34,000  Level Minneapolis Center
Sat 06:04:36 PM 39.8422 -98.9169 244° Southwest 402 463 34,000  Level Minneapolis Center
Sat 06:05:22 PM 39.8022 -99.0214 244° Southwest 401 461 34,000  Level Denver Center
Sat 06:06:24 PM 39.7533 -99.1511 244° Southwest 401 461 34,000  Level Denver Center
Sat 06:07:25 PM 39.7044 -99.2811 244° Southwest 401 461 34,000  Level Denver Center
Sat 06:08:27 PM 39.6553 -99.4119 244° Southwest 402 463 34,000  Level Denver Center
Sat 06:09:29 PM 39.6058 -99.5436 244° Southwest 403 464 34,000  Level Denver Center
Sat 06:10:31 PM 39.5556 -99.6739 243° Southwest 403 464 34,000  Level Denver Center
Sat 06:11:32 PM 39.5053 -99.8058 244° Southwest 405 466 34,000  Level Denver Center
Sat 06:12:34 PM 39.4458 -99.9617 244° Southwest 406 467 34,000  Level Denver Center
Sat 06:13:36 PM 39.3969 -100.0872 243° Southwest 406 467 34,000  Level Denver Center
Sat 06:14:37 PM 39.3475 -100.2119 243° Southwest 406 467 34,000  Level Denver Center
Sat 06:15:39 PM 39.2908 -100.3586 244° Southwest 409 471 34,000  Level Denver Center
Sat 06:16:41 PM 39.2419 -100.4842 243° Southwest 408 470 34,000  Level Denver Center
Sat 06:17:43 PM 39.1853 -100.6303 243° Southwest 408 470 34,000  Level Denver Center
Sat 06:18:44 PM 39.1353 -100.7544 243° Southwest 408 470 34,000  Level Denver Center
Sat 06:19:46 PM 39.0775 -100.9000 243° Southwest 408 470 34,000  Level Denver Center
Sat 06:20:48 PM 39.0283 -101.0242 243° Southwest 408 470 34,000  Level Denver Center
Sat 06:21:49 PM 38.9767 -101.1547 243° Southwest 409 471 34,000  Level Denver Center
Sat 06:22:51 PM 38.9186 -101.2986 243° Southwest 408 470 34,000  Level Denver Center
Sat 06:23:53 PM 38.8689 -101.4214 243° Southwest 408 470 34,000  Level Denver Center
Sat 06:24:54 PM 38.8106 -101.5650 243° Southwest 408 470 34,000  Level Denver Center
Sat 06:25:56 PM 38.7597 -101.6886 242° Southwest 409 471 34,000  Level Denver Center
Sat 06:26:57 PM 38.7094 -101.8122 242° Southwest 409 471 34,000  Level Denver Center
Sat 06:27:59 PM 38.6500 -101.9567 242° Southwest 410 472 34,000  Level Denver Center
Sat 06:29:01 PM 38.5986 -102.0822 242° Southwest 413 475 34,000 732 Level Denver Center
Sat 06:30:02 PM 38.5392 -102.2258 242° Southwest 413 475 35,500 976 Climbing Denver Center
Sat 06:31:04 PM 38.4889 -102.3472 242° Southwest 409 471 36,000 242 Climbing Denver Center
Sat 06:32:06 PM 38.4297 -102.4897 242° Southwest 408 470 36,000  Level Denver Center
Sat 06:33:08 PM 38.3778 -102.6111 241° Southwest 408 470 36,000  Level Denver Center
Sat 06:34:09 PM 38.3172 -102.7542 242° Southwest 409 471 36,000  Level Denver Center
Sat 06:35:11 PM 38.2661 -102.8769 242° Southwest 410 472 36,000  Level Denver Center
Sat 06:36:13 PM 38.2119 -103.0014 241° Southwest 415 478 36,000  Level Denver Center
Sat 06:37:14 PM 38.1539 -103.1378 242° Southwest 415 478 36,000  Level Denver Center
Sat 06:38:16 PM 38.0986 -103.2692 242° Southwest 421 484 36,000  Level Denver Center
Sat 06:39:17 PM 38.0283 -103.3889 233° Southwest 434 499 36,000  Level Denver Center
Sat 06:40:19 PM 37.9342 -103.4836 218° Southwest 431 496 36,000  Level Denver Center
Sat 06:41:21 PM 37.8206 -103.5967 218° Southwest 433 498 36,000  Level Denver Center
Sat 06:42:22 PM 37.7253 -103.6939 219° Southwest 434 499 36,000  Level Denver Center
Sat 06:43:24 PM 37.6308 -103.7889 219° Southwest 434 499 36,000  Level Denver Center
Sat 06:44:25 PM 37.5336 -103.8867 219° Southwest 435 501 36,000  Level Denver Center
Sat 06:45:27 PM 37.4306 -103.9892 218° Southwest 444 511 36,000  Level Denver Center
Sat 06:46:28 PM 37.3364 -104.0906 221° Southwest 445 512 36,000  Level Denver Center
Sat 06:47:30 PM 37.2414 -104.1897 220° Southwest 441 507 36,000  Level Denver Center
Sat 06:48:31 PM 37.1469 -104.2867 219° Southwest 441 507 36,000  Level Denver Center
Sat 06:49:33 PM 37.0536 -104.3878 221° Southwest 441 507 36,000  Level Denver Center
Sat 06:50:34 PM 36.9750 -104.5033 230° Southwest 438 504 36,000  Level Denver Center
Sat 06:51:36 PM 36.9228 -104.6394 244° Southwest 437 503 36,000  Level Denver Center
Sat 06:52:37 PM 36.8778 -104.7792 248° West 435 501 36,000  Level Denver Center
Sat 06:53:39 PM 36.8294 -104.9278 248° West 434 499 36,000  Level Denver Center
Sat 06:54:40 PM 36.7856 -105.0678 249° West 434 499 36,000  Level Denver Center
Sat 06:55:41 PM 36.7342 -105.2258 248° West 434 499 36,000  Level Denver Center
Sat 06:56:43 PM 36.6889 -105.3639 248° West 434 499 36,000  Level Denver Center
Sat 06:57:44 PM 36.6442 -105.5036 248° West 434 499 36,000  Level Denver Center
Sat 06:58:46 PM 36.5986 -105.6417 248° West 433 498 36,000  Level Denver Center
Sat 06:59:47 PM 36.5522 -105.7819 248° West 435 501 36,000  Level Denver Center
Sat 07:00:49 PM 36.5022 -105.9258 247° West 435 501 36,000  Level Denver Center
Sat 07:01:50 PM 36.4581 -106.0642 248° West 434 499 36,000  Level Denver Center
Sat 07:02:51 PM 36.4119 -106.2033 248° West 434 499 36,000  Level Denver Center
Sat 07:03:53 PM 36.3647 -106.3433 247° West 439 505 36,000  Level Denver Center
Sat 07:04:54 PM 36.3086 -106.5103 247° West 439 505 36,000  Level Denver Center
Sat 07:05:56 PM 36.2633 -106.6444 247° West 439 505 36,000  Level Denver Center
Sat 07:06:57 PM 36.2133 -106.7892 247° West 440 506 36,000  Level Denver Center
Sat 07:07:58 PM 36.1658 -106.9300 247° West 443 510 36,000  Level Denver Center
Sat 07:09:00 PM 36.1167 -107.0697 246° West 445 512 36,000  Level Denver Center
Sat 07:10:26 PM 36.0461 -107.2772 247° West 446 513 36,000  Level Albuquerque Center
Sat 07:11:27 PM 35.9908 -107.4347 247° West 446 513 36,000  Level Albuquerque Center
Sat 07:12:28 PM 35.9447 -107.5686 247° West 446 513 36,000  Level Albuquerque Center
Sat 07:13:29 PM 35.8808 -107.6931 238° Southwest 447 514 36,000  Level Albuquerque Center
Sat 07:14:30 PM 35.8036 -107.8392 237° Southwest 448 516 36,000  Level Albuquerque Center
Sat 07:15:31 PM 35.7372 -107.9631 237° Southwest 449 517 36,000  Level Albuquerque Center
Sat 07:16:32 PM 35.6717 -108.0886 237° Southwest 450 518 36,000  Level Albuquerque Center
Sat 07:17:33 PM 35.5936 -108.2339 237° Southwest 451 519 36,000  Level Albuquerque Center
Sat 07:18:34 PM 35.5269 -108.3589 237° Southwest 451 519 36,000  Level Albuquerque Center
Sat 07:19:35 PM 35.4603 -108.4836 237° Southwest 452 520 36,000  Level Albuquerque Center
Sat 07:20:36 PM 35.3825 -108.6258 236° Southwest 452 520 36,000 -98 Level Albuquerque Center
Sat 07:21:37 PM 35.3172 -108.7481 237° Southwest 451 519 35,800 -390 Descending Albuquerque Center
Sat 07:22:39 PM 35.2508 -108.8686 236° Southwest 450 518 35,200 -634 Descending Albuquerque Center
Sat 07:23:40 PM 35.1747 -109.0086 236° Southwest 447 514 34,500 -639 Descending Albuquerque Center
Sat 07:24:41 PM 35.1094 -109.1283 236° Southwest 445 512 33,900 -590 Descending Albuquerque Center
Sat 07:25:42 PM 35.0439 -109.2475 236° Southwest 444 511 33,300 -590 Descending Albuquerque Center
Sat 07:26:43 PM 34.9672 -109.3842 236° Southwest 442 509 32,700 -590 Descending Albuquerque Center
Sat 07:27:44 PM 34.9039 -109.5042 237° Southwest 441 507 32,100 -689 Descending Albuquerque Center
Sat 07:28:45 PM 34.8378 -109.6211 235° Southwest 441 507 31,300 -738 Descending Albuquerque Center
Sat 07:29:46 PM 34.7636 -109.7650 238° Southwest 444 511 30,600 -639 Descending Albuquerque Center
Sat 07:30:47 PM 34.7364 -109.9111 257° West 454 522 30,000 -689 Descending Albuquerque Center
Sat 07:31:48 PM 34.7033 -110.0742 256° West 451 519 29,200 -738 Descending Albuquerque Center
Sat 07:32:49 PM 34.6767 -110.2203 258° West 455 524 28,500 -645 Descending Albuquerque Center
Sat 07:33:49 PM 34.6492 -110.3639 257° West 456 525 27,900 -694 Descending Albuquerque Center
Sat 07:34:50 PM 34.6322 -110.5317 263° West 451 519 27,100 -738 Descending Albuquerque Center
Sat 07:35:51 PM 34.6208 -110.6733 264° West 446 513 26,400 -738 Descending Albuquerque Center
Sat 07:36:52 PM 34.5847 -110.8231 254° West 461 531 25,600 -1,230 Descending Albuquerque Center
Sat 07:37:53 PM 34.5400 -110.9558 248° West 432 497 23,900 -1,869 Descending Albuquerque Center
Sat 07:38:54 PM 34.4967 -111.0825 247° West 415 478 21,800 -1,721 Descending Albuquerque Center
Sat 07:39:55 PM 34.4506 -111.2136 247° West 417 480 20,400 -984 Descending Albuquerque Center
Sat 07:40:56 PM 34.3478 -111.2694 204° Southwest 410 472 19,800 -984 Descending Albuquerque Center
Sat 07:41:57 PM 34.2464 -111.3133 200° South 394 453 18,400 -1,770 Descending Albuquerque Center
Sat 07:42:58 PM 34.1494 -111.3597 202° Southwest 375 432 16,200 -1,721 Descending Albuquerque Center
Sat 07:43:59 PM 34.0614 -111.4131 207° Southwest 356 410 14,900 -1,736 Descending Albuquerque Center
Sat 07:44:59 PM 33.9742 -111.4586 203° Southwest 342 394 12,700 -2,132 Descending Albuquerque Center
Sat 07:46:00 PM 33.8828 -111.4994 200° South 343 395 10,600 -1,328 Descending Albuquerque Center
Sat 07:47:01 PM 33.7978 -111.5386 201° Southwest 321 369 10,000 -885 Descending Albuquerque Center
Sat 07:48:02 PM 33.7219 -111.5739 201° Southwest 293 337 8,800 -934 Descending Albuquerque Center
Sat 07:49:03 PM 33.6472 -111.6075 201° Southwest 289 333 8,100 -1,033 Descending Albuquerque Center
Sat 07:50:04 PM 33.5872 -111.6739 223° Southwest 292 336 6,700 -836 Descending Albuquerque Center
Sat 07:51:05 PM 33.5386 -111.7422 230° Southwest 269 310 6,400 -443 Descending Albuquerque Center
Sat 07:52:06 PM 33.5006 -111.7958 230° Southwest 215 247 5,800 -836 Descending Albuquerque Center
Sat 07:53:07 PM 33.4692 -111.8411 230° Southwest 181 208 4,700 -1,446 Descending Albuquerque Center
Sat 07:53:58 PM 33.4333 -111.8833 225° Southwest 162 186 3,100 -1,429 Descending Phoenix TRACON
Sat 07:54:52 PM 33.4333 -111.9333 270° West 154 177 2,200 -895 Descending Phoenix TRACON
Sat 07:55:52 PM 33.4333 -111.9833 270° West 153 176 1,400 -800 Descending Phoenix TRACON
Sat 07:58:00 PM 33.4343 -112.0116 272° West  Level Estimated

Login

Don't have an account? Register now (free) for customized features, flight alerts, and more!